createdAt,value
2018-08-20T00:00:27.726Z,22.62
2018-08-20T00:01:08.293Z,22.62
2018-08-20T00:01:48.860Z,22.73
2018-08-20T00:02:29.426Z,22.66
2018-08-20T00:03:09.980Z,22.63
2018-08-20T00:03:50.554Z,22.69
2018-08-20T00:04:31.110Z,22.7
2018-08-20T00:05:11.678Z,22.65
2018-08-20T00:05:52.244Z,22.68
2018-08-20T00:06:32.824Z,22.65
2018-08-20T00:07:13.403Z,22.72
2018-08-20T00:07:53.967Z,22.59
2018-08-20T00:08:34.566Z,22.75
2018-08-20T00:09:15.164Z,22.81
2018-08-20T00:09:55.734Z,22.76
2018-08-20T00:10:36.365Z,22.83
2018-08-20T00:11:16.919Z,22.78
2018-08-20T00:11:57.491Z,22.81
2018-08-20T00:12:38.047Z,22.8
2018-08-20T00:13:18.618Z,22.81
2018-08-20T00:13:59.200Z,22.83
2018-08-20T00:14:39.760Z,22.88
2018-08-20T00:15:20.320Z,22.73
2018-08-20T00:16:00.877Z,22.8
2018-08-20T00:16:41.447Z,22.81
2018-08-20T00:17:22.049Z,22.83
2018-08-20T00:18:02.680Z,22.83
2018-08-20T00:18:43.241Z,22.81
2018-08-20T00:19:23.808Z,22.85
2018-08-20T00:20:04.372Z,22.76
2018-08-20T00:20:44.930Z,22.81
2018-08-20T00:21:25.696Z,22.84
2018-08-20T00:22:06.268Z,22.81
2018-08-20T00:22:46.861Z,22.76
2018-08-20T00:23:27.506Z,22.87
2018-08-20T00:24:08.074Z,22.8
2018-08-20T00:24:48.670Z,22.73
2018-08-20T00:25:29.227Z,22.73
2018-08-20T00:26:09.788Z,22.73
2018-08-20T00:26:50.383Z,22.8
2018-08-20T00:27:30.945Z,22.7
2018-08-20T00:28:11.559Z,22.76
2018-08-20T00:28:52.059Z,22.59
2018-08-20T00:29:32.633Z,22.75
2018-08-20T00:30:13.187Z,22.66
2018-08-20T00:30:53.811Z,22.66
2018-08-20T00:31:34.373Z,22.65
2018-08-20T00:32:14.972Z,22.68
2018-08-20T00:32:55.535Z,22.66
2018-08-20T00:33:36.104Z,22.59
2018-08-20T00:34:16.661Z,22.57
2018-08-20T00:34:57.229Z,22.53
2018-08-20T00:35:37.819Z,22.62
2018-08-20T00:36:18.386Z,22.55
2018-08-20T00:36:58.950Z,22.57
2018-08-20T00:37:39.519Z,22.59
2018-08-20T00:38:20.074Z,22.59
2018-08-20T00:39:00.634Z,22.55
2018-08-20T00:39:41.192Z,22.55
2018-08-20T00:40:21.815Z,22.6
2018-08-20T00:41:02.389Z,22.59
2018-08-20T00:41:42.925Z,22.57
2018-08-20T00:42:23.484Z,22.55
2018-08-20T00:43:04.053Z,22.48
2018-08-20T00:43:44.633Z,22.51
2018-08-20T00:44:25.206Z,22.53
2018-08-20T00:45:05.776Z,22.53
2018-08-20T00:45:46.357Z,22.57
2018-08-20T00:46:26.940Z,22.53
2018-08-20T00:47:07.499Z,22.55
2018-08-20T00:47:48.082Z,22.59
2018-08-20T00:48:28.648Z,22.55
2018-08-20T00:49:09.217Z,22.57
2018-08-20T00:49:49.779Z,22.59
2018-08-20T00:50:30.340Z,22.53
2018-08-20T00:51:10.908Z,22.6
2018-08-20T00:51:51.487Z,22.63
2018-08-20T00:52:32.060Z,22.66
2018-08-20T00:53:12.621Z,22.65
2018-08-20T00:53:53.190Z,22.62
2018-08-20T00:54:33.756Z,22.6
2018-08-20T00:55:14.316Z,22.62
2018-08-20T00:55:54.905Z,22.57
2018-08-20T00:56:35.466Z,22.59
2018-08-20T00:57:16.038Z,22.53
2018-08-20T00:57:56.613Z,22.59
2018-08-20T00:58:37.185Z,22.53
2018-08-20T00:59:17.744Z,22.5
2018-08-20T00:59:58.312Z,22.51
2018-08-20T01:00:38.969Z,22.41
2018-08-20T01:01:19.520Z,22.45
2018-08-20T01:02:00.131Z,22.5
2018-08-20T01:02:40.685Z,22.5
2018-08-20T01:03:21.266Z,22.51
2018-08-20T01:04:01.851Z,22.45
2018-08-20T01:04:42.401Z,22.55
2018-08-20T01:05:22.962Z,22.59
2018-08-20T01:06:03.537Z,22.54
2018-08-20T01:06:44.144Z,22.55
2018-08-20T01:07:24.684Z,22.57
2018-08-20T01:08:05.251Z,22.55
2018-08-20T01:08:45.814Z,22.55
2018-08-20T01:09:26.396Z,22.54
2018-08-20T01:10:06.970Z,22.59
2018-08-20T01:10:47.534Z,22.53
2018-08-20T01:11:28.083Z,22.57
2018-08-20T01:12:08.675Z,22.59
2018-08-20T01:12:49.235Z,22.55
2018-08-20T01:13:29.800Z,22.54
2018-08-20T01:14:10.361Z,22.54
2018-08-20T01:14:50.931Z,22.53
2018-08-20T01:15:31.494Z,22.53
2018-08-20T01:16:12.055Z,22.57
2018-08-20T01:16:52.620Z,22.57
2018-08-20T01:17:33.195Z,22.59
2018-08-20T01:18:13.818Z,22.48
2018-08-20T01:18:54.380Z,22.47
2018-08-20T01:19:34.954Z,22.5
2018-08-20T01:20:15.515Z,22.51
2018-08-20T01:20:56.100Z,22.5
2018-08-20T01:21:36.691Z,22.55
2018-08-20T01:22:17.244Z,22.51
2018-08-20T01:22:57.824Z,22.57
2018-08-20T01:23:38.390Z,22.47
2018-08-20T01:24:18.972Z,22.57
2018-08-20T01:24:59.569Z,22.55
2018-08-20T01:25:40.136Z,22.57
2018-08-20T01:26:20.707Z,22.62
2018-08-20T01:27:01.266Z,22.55
2018-08-20T01:27:41.828Z,22.51
2018-08-20T01:28:22.408Z,22.59
2018-08-20T01:29:03.038Z,22.6
2018-08-20T01:29:43.650Z,22.59
2018-08-20T01:30:24.218Z,22.6
2018-08-20T01:31:04.790Z,22.6
2018-08-20T01:31:45.375Z,22.65
2018-08-20T01:32:25.961Z,22.63
2018-08-20T01:33:06.521Z,22.63
2018-08-20T01:33:47.091Z,22.59
2018-08-20T01:34:27.647Z,22.54
2018-08-20T01:35:08.258Z,22.54
2018-08-20T01:35:48.820Z,22.47
2018-08-20T01:36:29.386Z,22.59
2018-08-20T01:37:09.942Z,22.55
2018-08-20T01:37:50.525Z,22.55
2018-08-20T01:38:31.085Z,22.55
2018-08-20T01:39:11.647Z,22.55
2018-08-20T01:39:52.214Z,22.47
2018-08-20T01:40:32.766Z,22.55
2018-08-20T01:41:13.333Z,22.59
2018-08-20T01:41:53.892Z,22.5
2018-08-20T01:42:34.482Z,22.55
2018-08-20T01:43:15.066Z,22.43
2018-08-20T01:43:55.627Z,22.47
2018-08-20T01:44:36.197Z,22.47
2018-08-20T01:45:16.753Z,22.5
2018-08-20T01:45:57.350Z,22.44
2018-08-20T01:46:37.924Z,22.5
2018-08-20T01:47:18.496Z,22.41
2018-08-20T01:47:59.049Z,22.5
2018-08-20T01:48:39.605Z,22.43
2018-08-20T01:49:20.171Z,22.38
2018-08-20T01:50:00.724Z,22.47
2018-08-20T01:50:41.349Z,22.43
2018-08-20T01:51:21.891Z,22.43
2018-08-20T01:52:02.451Z,22.44
2018-08-20T01:52:43.013Z,22.35
2018-08-20T01:53:23.599Z,22.36
2018-08-20T01:54:04.160Z,22.44
2018-08-20T01:54:44.726Z,22.36
2018-08-20T01:55:25.295Z,22.36
2018-08-20T01:56:05.858Z,22.5
2018-08-20T01:56:46.420Z,22.45
2018-08-20T01:57:26.984Z,22.45
2018-08-20T01:58:07.558Z,22.43
2018-08-20T01:58:48.125Z,22.47
2018-08-20T01:59:28.686Z,22.5
2018-08-20T02:00:09.244Z,22.36
2018-08-20T02:00:49.801Z,22.38
2018-08-20T02:01:30.415Z,22.41
2018-08-20T02:02:10.976Z,22.32
2018-08-20T02:02:51.549Z,22.38
2018-08-20T02:03:32.109Z,22.32
2018-08-20T02:04:12.664Z,22.29
2018-08-20T02:04:53.241Z,22.33
2018-08-20T02:05:33.799Z,22.36
2018-08-20T02:06:14.391Z,22.33
2018-08-20T02:06:54.971Z,22.38
2018-08-20T02:07:35.524Z,22.35
2018-08-20T02:08:16.103Z,22.39
2018-08-20T02:08:56.669Z,22.36
2018-08-20T02:09:37.238Z,22.36
2018-08-20T02:10:17.812Z,22.47
2018-08-20T02:10:58.374Z,22.48
2018-08-20T02:11:38.934Z,22.39
2018-08-20T02:12:19.498Z,22.43
2018-08-20T02:13:00.055Z,22.41
2018-08-20T02:13:40.625Z,22.47
2018-08-20T02:14:21.190Z,22.43
2018-08-20T02:15:01.755Z,22.41
2018-08-20T02:15:42.314Z,22.48
2018-08-20T02:16:22.885Z,22.36
2018-08-20T02:17:03.435Z,22.36
2018-08-20T02:17:44.019Z,22.47
2018-08-20T02:18:24.608Z,22.38
2018-08-20T02:19:05.168Z,22.29
2018-08-20T02:19:45.737Z,22.38
2018-08-20T02:20:26.296Z,22.29
2018-08-20T02:21:06.859Z,22.29
2018-08-20T02:21:47.416Z,22.39
2018-08-20T02:22:27.994Z,22.41
2018-08-20T02:23:08.565Z,22.36
2018-08-20T02:23:49.134Z,22.28
2018-08-20T02:24:29.704Z,22.32
2018-08-20T02:25:10.267Z,22.36
2018-08-20T02:25:50.833Z,22.35
2018-08-20T02:26:31.381Z,22.38
2018-08-20T02:27:11.950Z,22.35
2018-08-20T02:27:52.511Z,22.32
2018-08-20T02:28:33.080Z,22.41
2018-08-20T02:29:13.637Z,22.38
2018-08-20T02:29:54.201Z,22.32
2018-08-20T02:30:34.763Z,22.26
2018-08-20T02:31:15.324Z,22.29
2018-08-20T02:31:55.871Z,22.38
2018-08-20T02:32:36.435Z,22.33
2018-08-20T02:33:17.006Z,22.23
2018-08-20T02:33:57.568Z,22.35
2018-08-20T02:34:38.142Z,22.39
2018-08-20T02:35:18.702Z,22.2
2018-08-20T02:35:59.260Z,22.23
2018-08-20T02:36:39.835Z,22.28
2018-08-20T02:37:20.415Z,22.33
2018-08-20T02:38:00.984Z,22.18
2018-08-20T02:38:41.577Z,22.25
2018-08-20T02:39:22.134Z,22.29
2018-08-20T02:40:02.700Z,22.33
2018-08-20T02:40:43.271Z,22.23
2018-08-20T02:41:23.821Z,22.28
2018-08-20T02:42:04.393Z,22.25
2018-08-20T02:42:44.974Z,22.17
2018-08-20T02:43:25.550Z,22.18
2018-08-20T02:44:06.111Z,22.1
2018-08-20T02:44:46.668Z,22.11
2018-08-20T02:45:27.224Z,22.18
2018-08-20T02:46:07.795Z,22.11
2018-08-20T02:46:48.350Z,22.11
2018-08-20T02:47:28.919Z,22.02
2018-08-20T02:48:09.481Z,22.15
2018-08-20T02:48:50.037Z,22.1
2018-08-20T02:49:30.684Z,22.17
2018-08-20T02:50:11.266Z,22.14
2018-08-20T02:50:51.822Z,22.07
2018-08-20T02:51:32.392Z,22.14
2018-08-20T02:52:12.960Z,22.11
2018-08-20T02:52:53.527Z,22.11
2018-08-20T02:53:34.109Z,22.07
2018-08-20T02:54:14.678Z,22.06
2018-08-20T02:54:55.230Z,22
2018-08-20T02:55:35.813Z,22.02
2018-08-20T02:56:16.389Z,22.04
2018-08-20T02:56:56.956Z,22.07
2018-08-20T02:57:37.518Z,22.07
2018-08-20T02:58:18.076Z,22.07
2018-08-20T02:58:58.644Z,22.11
2018-08-20T02:59:39.238Z,22.08
2018-08-20T03:00:19.802Z,22.07
2018-08-20T03:01:00.371Z,21.98
2018-08-20T03:01:40.945Z,21.96
2018-08-20T03:02:21.527Z,22
2018-08-20T03:03:02.123Z,22.02
2018-08-20T03:03:42.784Z,21.99
2018-08-20T03:04:23.280Z,21.99
2018-08-20T03:05:03.840Z,21.98
2018-08-20T03:05:44.407Z,22
2018-08-20T03:06:24.976Z,21.92
2018-08-20T03:07:05.533Z,21.96
2018-08-20T03:07:46.097Z,21.89
2018-08-20T03:08:26.659Z,21.95
2018-08-20T03:09:07.242Z,21.88
2018-08-20T03:09:47.862Z,21.95
2018-08-20T03:10:28.422Z,21.92
2018-08-20T03:11:08.991Z,21.91
2018-08-20T03:11:49.570Z,21.83
2018-08-20T03:12:30.133Z,21.79
2018-08-20T03:13:10.689Z,21.8
2018-08-20T03:13:51.273Z,21.79
2018-08-20T03:14:31.840Z,21.77
2018-08-20T03:15:12.473Z,21.85
2018-08-20T03:15:52.995Z,21.85
2018-08-20T03:16:33.563Z,21.79
2018-08-20T03:17:14.125Z,21.82
2018-08-20T03:17:54.699Z,21.83
2018-08-20T03:18:35.267Z,21.83
2018-08-20T03:19:15.830Z,21.79
2018-08-20T03:19:56.380Z,21.76
2018-08-20T03:20:36.952Z,21.83
2018-08-20T03:21:17.527Z,21.67
2018-08-20T03:21:58.096Z,21.8
2018-08-20T03:22:38.661Z,21.79
2018-08-20T03:23:19.225Z,21.7
2018-08-20T03:23:59.793Z,21.8
2018-08-20T03:24:40.340Z,21.76
2018-08-20T03:25:20.910Z,21.7
2018-08-20T03:26:01.469Z,21.83
2018-08-20T03:26:42.054Z,21.8
2018-08-20T03:27:22.626Z,21.61
2018-08-20T03:28:03.212Z,21.72
2018-08-20T03:28:43.774Z,21.72
2018-08-20T03:29:24.344Z,21.67
2018-08-20T03:30:04.908Z,21.72
2018-08-20T03:30:45.470Z,21.76
2018-08-20T03:31:26.028Z,21.76
2018-08-20T03:32:06.584Z,21.66
2018-08-20T03:32:47.147Z,21.66
2018-08-20T03:33:27.716Z,21.69
2018-08-20T03:34:08.278Z,21.54
2018-08-20T03:34:48.856Z,21.66
2018-08-20T03:35:29.423Z,21.67
2018-08-20T03:36:09.981Z,21.58
2018-08-20T03:36:50.549Z,21.62
2018-08-20T03:37:31.121Z,21.72
2018-08-20T03:38:11.696Z,21.64
2018-08-20T03:38:52.237Z,21.67
2018-08-20T03:39:32.807Z,21.67
2018-08-20T03:40:13.384Z,21.55
2018-08-20T03:40:53.932Z,21.66
2018-08-20T03:41:34.496Z,21.5
2018-08-20T03:42:15.065Z,21.5
2018-08-20T03:42:55.691Z,21.5
2018-08-20T03:43:36.253Z,21.58
2018-08-20T03:44:16.829Z,21.55
2018-08-20T03:44:57.412Z,21.51
2018-08-20T03:45:37.963Z,21.5
2018-08-20T03:46:18.519Z,21.48
2018-08-20T03:46:59.145Z,21.57
2018-08-20T03:47:39.738Z,21.48
2018-08-20T03:48:20.298Z,21.52
2018-08-20T03:49:00.863Z,21.51
2018-08-20T03:49:41.479Z,21.57
2018-08-20T03:50:22.074Z,21.51
2018-08-20T03:51:02.637Z,21.5
2018-08-20T03:51:43.201Z,21.5
2018-08-20T03:52:23.844Z,21.45
2018-08-20T03:53:04.407Z,21.52
2018-08-20T03:53:44.977Z,21.54
2018-08-20T03:54:25.547Z,21.45
2018-08-20T03:55:06.120Z,21.46
2018-08-20T03:55:46.691Z,21.45
2018-08-20T03:56:27.279Z,21.51
2018-08-20T03:57:07.829Z,21.48
2018-08-20T03:57:48.425Z,21.43
2018-08-20T03:58:28.978Z,21.46
2018-08-20T03:59:09.538Z,21.43
2018-08-20T03:59:50.104Z,21.39
2018-08-20T04:00:30.664Z,21.4
2018-08-20T04:01:11.239Z,21.48
2018-08-20T04:01:51.820Z,21.43
2018-08-20T04:02:32.386Z,21.4
2018-08-20T04:03:12.951Z,21.45
2018-08-20T04:03:53.563Z,21.39
2018-08-20T04:04:34.171Z,21.51
2018-08-20T04:05:14.734Z,21.54
2018-08-20T04:05:55.298Z,21.46
2018-08-20T04:06:35.879Z,21.42
2018-08-20T04:07:16.441Z,21.42
2018-08-20T04:07:56.996Z,21.46
2018-08-20T04:08:37.585Z,21.46
2018-08-20T04:09:18.170Z,21.4
2018-08-20T04:09:58.734Z,21.43
2018-08-20T04:10:39.390Z,21.35
2018-08-20T04:11:19.948Z,21.43
2018-08-20T04:12:00.532Z,21.5
2018-08-20T04:12:41.136Z,21.43
2018-08-20T04:13:21.708Z,21.46
2018-08-20T04:14:02.309Z,21.4
2018-08-20T04:14:42.879Z,21.46
2018-08-20T04:15:23.439Z,21.42
2018-08-20T04:16:04.010Z,21.5
2018-08-20T04:16:44.603Z,21.5
2018-08-20T04:17:25.169Z,21.48
2018-08-20T04:18:05.715Z,21.52
2018-08-20T04:18:46.280Z,21.48
2018-08-20T04:19:26.842Z,21.42
2018-08-20T04:20:07.411Z,21.48
2018-08-20T04:20:48.207Z,21.45
2018-08-20T04:21:28.708Z,21.52
2018-08-20T04:22:09.303Z,21.54
2018-08-20T04:22:49.931Z,21.5
2018-08-20T04:23:30.490Z,21.54
2018-08-20T04:24:11.061Z,21.51
2018-08-20T04:24:51.698Z,21.52
2018-08-20T04:25:32.261Z,21.5
2018-08-20T04:26:12.884Z,21.5
2018-08-20T04:26:53.452Z,21.5
2018-08-20T04:27:34.005Z,21.58
2018-08-20T04:28:14.556Z,21.57
2018-08-20T04:28:55.131Z,21.5
2018-08-20T04:29:35.700Z,21.45
2018-08-20T04:30:16.265Z,21.5
2018-08-20T04:30:56.861Z,21.57
2018-08-20T04:31:37.420Z,21.46
2018-08-20T04:32:17.991Z,21.46
2018-08-20T04:32:58.604Z,21.46
2018-08-20T04:33:39.161Z,21.46
2018-08-20T04:34:19.724Z,21.5
2018-08-20T04:35:00.283Z,21.46
2018-08-20T04:35:40.869Z,21.5
2018-08-20T04:36:21.513Z,21.52
2018-08-20T04:37:02.019Z,21.5
2018-08-20T04:37:42.581Z,21.54
2018-08-20T04:38:23.145Z,21.51
2018-08-20T04:39:03.724Z,21.5
2018-08-20T04:39:44.294Z,21.55
2018-08-20T04:40:24.860Z,21.58
2018-08-20T04:41:05.431Z,21.5
2018-08-20T04:41:46.060Z,21.62
2018-08-20T04:42:26.612Z,21.5
2018-08-20T04:43:07.176Z,21.64
2018-08-20T04:43:47.788Z,21.52
2018-08-20T04:44:28.344Z,21.61
2018-08-20T04:45:08.901Z,21.64
2018-08-20T04:45:49.464Z,21.66
2018-08-20T04:46:30.050Z,21.62
2018-08-20T04:47:10.619Z,21.61
2018-08-20T04:47:51.190Z,21.64
2018-08-20T04:48:31.761Z,21.64
2018-08-20T04:49:12.410Z,21.6
2018-08-20T04:49:53.097Z,21.64
2018-08-20T04:50:33.788Z,21.54
2018-08-20T04:51:14.397Z,21.66
2018-08-20T04:51:54.801Z,21.54
2018-08-20T04:52:35.387Z,21.61
2018-08-20T04:53:15.958Z,21.57
2018-08-20T04:53:56.520Z,21.51
2018-08-20T04:54:37.085Z,21.55
2018-08-20T04:55:17.644Z,21.5
2018-08-20T04:55:58.218Z,21.5
2018-08-20T04:56:38.784Z,21.46
2018-08-20T04:57:19.346Z,21.55
2018-08-20T04:57:59.905Z,21.55
2018-08-20T04:58:40.465Z,21.45
2018-08-20T04:59:21.023Z,21.54
2018-08-20T05:00:01.673Z,21.58
2018-08-20T05:00:42.187Z,21.54
2018-08-20T05:01:22.741Z,21.54
2018-08-20T05:02:03.303Z,21.51
2018-08-20T05:02:43.877Z,21.51
2018-08-20T05:03:24.472Z,21.52
2018-08-20T05:04:05.048Z,21.48
2018-08-20T05:04:45.607Z,21.51
2018-08-20T05:05:26.203Z,21.57
2018-08-20T05:06:06.776Z,21.55
2018-08-20T05:06:47.332Z,21.51
2018-08-20T05:07:27.896Z,21.52
2018-08-20T05:08:08.448Z,21.61
2018-08-20T05:08:49.012Z,21.61
2018-08-20T05:09:29.588Z,21.61
2018-08-20T05:10:10.243Z,21.55
2018-08-20T05:10:50.808Z,21.62
2018-08-20T05:11:31.341Z,21.57
2018-08-20T05:12:11.913Z,21.67
2018-08-20T05:12:52.487Z,21.66
2018-08-20T05:13:33.055Z,21.75
2018-08-20T05:14:13.617Z,21.61
2018-08-20T05:14:54.217Z,21.62
2018-08-20T05:15:34.813Z,21.67
2018-08-20T05:16:15.362Z,21.72
2018-08-20T05:16:55.925Z,21.62
2018-08-20T05:17:36.484Z,21.66
2018-08-20T05:18:17.050Z,21.66
2018-08-20T05:18:57.725Z,21.69
2018-08-20T05:19:38.195Z,21.77
2018-08-20T05:20:18.769Z,21.8
2018-08-20T05:20:59.339Z,21.76
2018-08-20T05:21:39.900Z,21.8
2018-08-20T05:22:20.492Z,21.88
2018-08-20T05:23:01.071Z,21.8
2018-08-20T05:23:41.660Z,21.76
2018-08-20T05:24:22.224Z,21.89
2018-08-20T05:25:02.800Z,21.82
2018-08-20T05:25:43.390Z,21.88
2018-08-20T05:26:23.973Z,21.85
2018-08-20T05:27:04.554Z,21.92
2018-08-20T05:27:45.145Z,21.95
2018-08-20T05:28:25.692Z,21.92
2018-08-20T05:29:06.250Z,21.96
2018-08-20T05:29:46.820Z,21.85
2018-08-20T05:30:27.470Z,22
2018-08-20T05:31:08.033Z,22.06
2018-08-20T05:31:48.606Z,21.99
2018-08-20T05:32:29.175Z,22.07
2018-08-20T05:33:09.783Z,22.08
2018-08-20T05:33:50.404Z,22.07
2018-08-20T05:34:30.972Z,22.04
2018-08-20T05:35:11.540Z,22.08
2018-08-20T05:35:52.094Z,22.04
2018-08-20T05:36:32.660Z,22.04
2018-08-20T05:37:13.221Z,21.99
2018-08-20T05:37:53.804Z,22.13
2018-08-20T05:38:34.396Z,22.1
2018-08-20T05:39:14.952Z,22.13
2018-08-20T05:39:55.518Z,22.06
2018-08-20T05:40:36.076Z,22.14
2018-08-20T05:41:16.640Z,22.17
2018-08-20T05:41:57.206Z,22.18
2018-08-20T05:42:37.758Z,22.17
2018-08-20T05:43:18.320Z,22.18
2018-08-20T05:43:58.881Z,22.2
2018-08-20T05:44:39.488Z,22.25
2018-08-20T05:45:20.029Z,22.29
2018-08-20T05:46:00.620Z,22.18
2018-08-20T05:46:41.164Z,22.28
2018-08-20T05:47:21.732Z,22.3
2018-08-20T05:48:02.329Z,22.28
2018-08-20T05:48:42.898Z,22.36
2018-08-20T05:49:23.499Z,22.35
2018-08-20T05:50:04.082Z,22.38
2018-08-20T05:50:44.639Z,22.28
2018-08-20T05:51:25.216Z,22.32
2018-08-20T05:52:05.803Z,22.35
2018-08-20T05:52:46.346Z,22.43
2018-08-20T05:53:26.953Z,22.44
2018-08-20T05:54:07.525Z,22.41
2018-08-20T05:54:48.093Z,22.45
2018-08-20T05:55:28.678Z,22.44
2018-08-20T05:56:10.863Z,22.5
2018-08-20T05:56:51.309Z,22.51
2018-08-20T05:57:32.009Z,22.53
2018-08-20T05:58:12.676Z,22.54
2018-08-20T05:58:53.265Z,22.5
2018-08-20T05:59:33.829Z,22.6
2018-08-20T06:00:14.407Z,22.57
2018-08-20T06:00:54.973Z,22.55
2018-08-20T06:01:35.559Z,22.65
2018-08-20T06:02:17.463Z,22.65
2018-08-20T06:02:58.129Z,22.6
2018-08-20T06:03:38.763Z,22.65
2018-08-20T06:04:19.422Z,22.65
2018-08-20T06:05:00.457Z,22.69
2018-08-20T06:05:41.811Z,22.69
2018-08-20T06:06:22.399Z,22.7
2018-08-20T06:07:03.062Z,22.75
2018-08-20T06:07:43.590Z,22.73
2018-08-20T06:08:24.156Z,22.73
2018-08-20T06:09:04.730Z,22.84
2018-08-20T06:09:45.348Z,22.81
2018-08-20T06:10:26.000Z,22.8
2018-08-20T06:11:06.730Z,22.83
2018-08-20T06:11:47.350Z,22.83
2018-08-20T06:12:28.108Z,22.8
2018-08-20T06:13:08.690Z,22.76
2018-08-20T06:13:49.341Z,22.73
2018-08-20T06:14:29.931Z,22.83
2018-08-20T06:15:10.528Z,22.83
2018-08-20T06:15:51.112Z,22.78
2018-08-20T06:16:31.718Z,22.76
2018-08-20T06:17:12.344Z,22.83
2018-08-20T06:17:52.956Z,22.84
2018-08-20T06:18:34.685Z,22.85
2018-08-20T06:19:15.396Z,22.96
2018-08-20T06:19:56.060Z,22.96
2018-08-20T06:20:36.712Z,23.03
2018-08-20T06:21:17.329Z,22.99
2018-08-20T06:21:57.895Z,23.09
2018-08-20T06:22:38.560Z,23.03
2018-08-20T06:23:19.059Z,23.08
2018-08-20T06:23:59.648Z,22.99
2018-08-20T06:24:40.197Z,23
2018-08-20T06:25:21.359Z,22.96
2018-08-20T06:26:02.115Z,23.06
2018-08-20T06:26:42.683Z,23.02
2018-08-20T06:27:23.388Z,22.99
2018-08-20T06:28:04.040Z,23.06
2018-08-20T06:28:44.700Z,23.08
2018-08-20T06:29:25.336Z,23.2
2018-08-20T06:30:05.899Z,23.13
2018-08-20T06:30:46.691Z,23.31
2018-08-20T06:31:27.206Z,23.37
2018-08-20T06:32:07.772Z,23.34
2018-08-20T06:32:48.574Z,23.34
2018-08-20T06:33:29.144Z,23.37
2018-08-20T06:34:09.718Z,23.46
2018-08-20T06:34:50.298Z,23.37
2018-08-20T06:35:30.879Z,23.47
2018-08-20T06:36:11.478Z,23.37
2018-08-20T06:36:52.075Z,23.47
2018-08-20T06:37:32.646Z,23.43
2018-08-20T06:38:13.211Z,23.5
2018-08-20T06:38:53.804Z,23.55
2018-08-20T06:39:34.350Z,23.65
2018-08-20T06:40:14.908Z,23.62
2018-08-20T06:40:55.476Z,23.63
2018-08-20T06:41:36.080Z,23.68
2018-08-20T06:42:16.620Z,23.68
2018-08-20T06:42:58.038Z,23.66
2018-08-20T06:43:38.643Z,23.69
2018-08-20T06:44:19.217Z,23.69
2018-08-20T06:44:59.783Z,23.65
2018-08-20T06:45:40.332Z,23.65
2018-08-20T06:46:20.917Z,23.61
2018-08-20T06:47:01.507Z,23.61
2018-08-20T06:47:42.094Z,23.63
2018-08-20T06:48:22.735Z,23.66
2018-08-20T06:49:03.301Z,23.76
2018-08-20T06:49:43.903Z,23.8
2018-08-20T06:50:24.470Z,23.88
2018-08-20T06:51:05.036Z,23.93
2018-08-20T06:51:45.589Z,24.01
2018-08-20T06:52:26.181Z,24.11
2018-08-20T06:53:06.771Z,24.13
2018-08-20T06:53:47.331Z,24.17
2018-08-20T06:54:28.062Z,24.18
2018-08-20T06:55:08.624Z,24.21
2018-08-20T06:55:49.209Z,24.23
2018-08-20T06:56:29.800Z,24.17
2018-08-20T06:57:10.365Z,24.16
2018-08-20T06:57:50.974Z,24.21
2018-08-20T06:58:31.602Z,24.29
2018-08-20T06:59:12.110Z,24.4
2018-08-20T06:59:52.696Z,24.51
2018-08-20T07:00:33.259Z,24.65
2018-08-20T07:01:13.842Z,24.77
2018-08-20T07:01:54.395Z,24.95
2018-08-20T07:02:34.969Z,24.95
2018-08-20T07:03:15.557Z,25.08
2018-08-20T07:03:56.142Z,25.13
2018-08-20T07:04:36.713Z,25.14
2018-08-20T07:05:17.288Z,25.18
2018-08-20T07:05:58.011Z,25.25
2018-08-20T07:06:38.586Z,25.29
2018-08-20T07:07:19.156Z,25.4
2018-08-20T07:07:59.765Z,25.46
2018-08-20T07:08:40.316Z,25.53
2018-08-20T07:09:20.896Z,25.69
2018-08-20T07:10:01.463Z,25.73
2018-08-20T07:10:42.024Z,25.7
2018-08-20T07:11:22.603Z,25.55
2018-08-20T07:12:03.223Z,25.5
2018-08-20T07:12:43.804Z,25.44
2018-08-20T07:13:24.483Z,25.43
2018-08-20T07:14:05.059Z,25.33
2018-08-20T07:14:45.635Z,25.17
2018-08-20T07:15:26.202Z,25.16
2018-08-20T07:16:06.972Z,25.08
2018-08-20T07:16:47.563Z,25.06
2018-08-20T07:17:28.205Z,24.99
2018-08-20T07:18:08.714Z,24.88
2018-08-20T07:18:49.304Z,24.77
2018-08-20T07:19:29.871Z,24.6
2018-08-20T07:20:10.431Z,24.58
2018-08-20T07:20:51.041Z,24.54
2018-08-20T07:21:31.614Z,24.43
2018-08-20T07:22:12.188Z,24.39
2018-08-20T07:22:52.827Z,24.29
2018-08-20T07:23:33.457Z,24.29
2018-08-20T07:24:13.910Z,24.17
2018-08-20T07:24:54.475Z,24.13
2018-08-20T07:25:35.058Z,23.99
2018-08-20T07:26:15.610Z,24.02
2018-08-20T07:26:56.171Z,24.01
2018-08-20T07:27:36.773Z,23.98
2018-08-20T07:28:17.359Z,23.92
2018-08-20T07:28:57.931Z,23.84
2018-08-20T07:29:38.578Z,23.87
2018-08-20T07:30:19.396Z,23.86
2018-08-20T07:30:59.999Z,23.78
2018-08-20T07:31:40.701Z,23.83
2018-08-20T07:32:21.288Z,23.83
2018-08-20T07:33:02.000Z,23.86
2018-08-20T07:33:42.697Z,23.83
2018-08-20T07:34:23.275Z,23.91
2018-08-20T07:35:03.919Z,23.86
2018-08-20T07:35:44.960Z,23.88
2018-08-20T07:36:25.611Z,23.91
2018-08-20T07:37:06.236Z,23.83
2018-08-20T07:37:46.798Z,23.93
2018-08-20T07:38:27.475Z,23.96
2018-08-20T07:39:08.114Z,23.99
2018-08-20T07:39:48.682Z,23.92
2018-08-20T07:40:29.270Z,23.95
2018-08-20T07:41:09.860Z,23.98
2018-08-20T07:41:50.438Z,23.99
2018-08-20T07:42:31.044Z,23.99
2018-08-20T07:43:11.592Z,23.98
2018-08-20T07:43:52.202Z,23.96
2018-08-20T07:44:32.757Z,23.88
2018-08-20T07:45:13.342Z,24.02
2018-08-20T07:45:53.910Z,23.98
2018-08-20T07:46:34.477Z,24.05
2018-08-20T07:47:15.194Z,23.98
2018-08-20T07:47:55.725Z,24.08
2018-08-20T07:48:36.297Z,24.11
2018-08-20T07:49:16.906Z,24.11
2018-08-20T07:49:57.473Z,24.11
2018-08-20T07:50:38.045Z,24.11
2018-08-20T07:51:18.603Z,24.11
2018-08-20T07:51:59.267Z,24.03
2018-08-20T07:52:39.861Z,23.99
2018-08-20T07:53:20.424Z,23.98
2018-08-20T07:54:01.055Z,23.98
2018-08-20T07:54:41.621Z,23.99
2018-08-20T07:55:22.175Z,23.96
2018-08-20T07:56:02.749Z,23.99
2018-08-20T07:56:43.336Z,24.02
2018-08-20T07:57:23.922Z,23.99
2018-08-20T07:58:04.478Z,23.96
2018-08-20T07:58:45.031Z,24.03
2018-08-20T07:59:25.618Z,23.96
2018-08-20T08:00:06.211Z,24.01
2018-08-20T08:00:46.775Z,23.93
2018-08-20T08:01:27.345Z,23.99
2018-08-20T08:02:07.947Z,23.86
2018-08-20T08:02:48.520Z,23.92
2018-08-20T08:03:29.069Z,23.84
2018-08-20T08:04:09.638Z,23.87
2018-08-20T08:04:50.313Z,23.81
2018-08-20T08:05:30.894Z,23.87
2018-08-20T08:06:11.462Z,23.83
2018-08-20T08:06:52.021Z,23.87
2018-08-20T08:07:32.613Z,23.83
2018-08-20T08:08:13.197Z,23.83
2018-08-20T08:08:53.766Z,23.93
2018-08-20T08:09:34.331Z,23.93
2018-08-20T08:10:14.905Z,23.92
2018-08-20T08:10:55.506Z,23.86
2018-08-20T08:11:36.076Z,23.88
2018-08-20T08:12:16.665Z,23.88
2018-08-20T08:12:57.236Z,23.92
2018-08-20T08:13:37.800Z,23.95
2018-08-20T08:14:18.442Z,23.81
2018-08-20T08:14:58.928Z,23.83
2018-08-20T08:15:39.485Z,23.83
2018-08-20T08:16:20.043Z,23.87
2018-08-20T08:17:00.675Z,23.86
2018-08-20T08:17:41.277Z,23.84
2018-08-20T08:18:21.909Z,23.88
2018-08-20T08:19:02.440Z,23.8
2018-08-20T08:19:43.007Z,23.83
2018-08-20T08:20:23.583Z,23.84
2018-08-20T08:21:04.150Z,23.87
2018-08-20T08:21:44.731Z,23.87
2018-08-20T08:22:25.810Z,23.86
2018-08-20T08:23:06.480Z,23.84
2018-08-20T08:23:47.126Z,23.8
2018-08-20T08:24:27.698Z,23.8
2018-08-20T08:25:08.285Z,23.78
2018-08-20T08:25:48.862Z,23.71
2018-08-20T08:26:29.480Z,23.74
2018-08-20T08:27:10.041Z,23.76
2018-08-20T08:27:50.581Z,23.69
2018-08-20T08:28:31.191Z,23.71
2018-08-20T08:29:11.764Z,23.66
2018-08-20T08:29:52.337Z,23.63
2018-08-20T08:30:32.891Z,23.71
2018-08-20T08:31:13.465Z,23.63
2018-08-20T08:31:54.187Z,23.63
2018-08-20T08:32:34.650Z,23.69
2018-08-20T08:33:15.217Z,23.71
2018-08-20T08:33:55.803Z,23.66
2018-08-20T08:34:36.367Z,23.69
2018-08-20T08:35:16.935Z,23.69
2018-08-20T08:35:57.508Z,23.69
2018-08-20T08:36:38.087Z,23.68
2018-08-20T08:37:18.679Z,23.65
2018-08-20T08:37:59.321Z,23.76
2018-08-20T08:38:39.822Z,23.73
2018-08-20T08:39:20.404Z,23.73
2018-08-20T08:40:00.945Z,23.66
2018-08-20T08:40:41.530Z,23.68
2018-08-20T08:41:22.113Z,23.66
2018-08-20T08:42:02.684Z,23.59
2018-08-20T08:42:43.253Z,23.63
2018-08-20T08:43:23.813Z,23.61
2018-08-20T08:44:04.370Z,23.59
2018-08-20T08:44:44.934Z,23.59